• Join FlightAware (Why Join?)
  • Login
  • US Flag 
05:35PM EDT


 

Airport Tracker/Info


-or-


 

Live Flight TrackerFlight Track Log ✈ ACA831 ✈ 23-Jun-2013 ✈ CYUL - CYYZ

Flight Track Log - Related Links

Times and Time Zones

All times are in EDT time to prevent confusion due to time zone crossing. See the ACA831 flight status page for this flight to view local times or setup timezone preferences in your user account.

Time Position Orientation Groundspeed Altitude Reporting Facility
EDT Latitude Longitude Course Direction KTS MPH feet Rate Location/Type
08:35PM 45.4780 -73.7180 47° Northeast 14 16  Level FlightAware
08:35PM 45.4770 -73.7160 125° Southeast 10 12 240 Level FlightAware
08:36PM 45.4740 -73.7200 223° Southwest 76 87 420 Level FlightAware
08:36PM 45.4630 -73.7350 224° Southwest 172 198 400 2,400 Climbing FlightAware
08:37PM 45.4470 -73.7540 220° Southwest 177 204 1,800 2,700 Climbing FlightAware
08:37PM 45.4290 -73.7770 222° Southwest 222 255 2,700 3,420 Climbing FlightAware
08:38PM 45.3930 -73.8190 219° Southwest 257 296 5,600 4,260 Climbing FlightAware
08:38PM 45.3750 -73.8410 221° Southwest 261 300 7,000 4,560 Climbing FlightAware
08:38PM 45.3660 -73.8630 240° Southwest 256 295 8,200 4,560 Climbing FlightAware
08:38PM 45.3640 -73.8810 261° West 258 297 8,900 3,540 Climbing FlightAware
08:39PM 45.3690 -73.9680 275° West 304 350 11,600 3,660 Climbing FlightAware
08:40PM 45.3760 -74.0570 276° West 329 379 14,400 3,900 Climbing FlightAware
08:40PM 45.3850 -74.1370 279° West 341 392 16,800 3,660 Climbing FlightAware
08:41PM 45.3970 -74.2430 279° West 357 411 19,600 3,540 Climbing FlightAware
08:42PM 45.4080 -74.3430 279° West 368 423 22,000 3,120 Climbing FlightAware
08:43PM 45.4080 -74.4800 270° West 386 444 24,800 3,000 Climbing FlightAware
08:44PM 45.3900 -74.5910 257° West 396 456 27,000 2,700 Climbing FlightAware
08:44PM 45.3730 -74.6920 257° West 406 467 28,600 2,640 Climbing FlightAware
08:45PM 45.3530 -74.8050 256° West 406 467 30,700 2,880 Climbing FlightAware
08:46PM 45.3350 -74.9140 257° West 398 458 32,800 2,400 Climbing FlightAware
08:46PM 45.3090 -75.0080 249° West 409 471 34,000 840 Climbing FlightAware
08:47PM 45.2550 -75.0900 227° Southwest 419 482 34,000  Level FlightAware
08:48PM 45.1920 -75.1810 226° Southwest 412 474 34,000  Level FlightAware
08:49PM 45.0980 -75.3180 226° Southwest 405 466 34,000  Level FlightAware
08:50PM 45.0510 -75.3850 225° Southwest 401 461 34,000  Level FlightAware
08:50PM 44.9950 -75.4690 227° Southwest 401 461 34,000  Level FlightAware
08:51PM 44.9480 -75.5380 226° Southwest 401 461 34,000  Level FlightAware
08:52PM 44.8970 -75.6140 227° Southwest 405 466 34,000  Level FlightAware
08:52PM 44.8430 -75.6940 226° Southwest 406 467 34,000  Level FlightAware
08:53PM 44.7980 -75.7630 227° Southwest 406 467 34,000  Level FlightAware
08:54PM 44.7510 -75.8420 230° Southwest 407 468 34,000  Level FlightAware
08:54PM 44.7000 -75.9300 231° Southwest 407 468 34,000  Level FlightAware
08:55PM 44.6520 -76.0130 231° Southwest 407 468 34,000  Level FlightAware
08:56PM 44.6180 -76.0760 233° Southwest 406 467 34,000  Level FlightAware
08:56PM 44.5790 -76.1490 233° Southwest 405 466 34,000  Level FlightAware
08:57PM 44.5420 -76.2440 241° Southwest 405 466 34,000  Level FlightAware
08:57PM 44.5110 -76.3260 242° Southwest 405 466 34,000  Level FlightAware
08:58PM 44.4730 -76.4300 243° Southwest 407 468 34,000  Level FlightAware
08:59PM 44.4380 -76.5330 245° Southwest 407 468 34,000  Level FlightAware
09:00PM 44.4270 -76.6500 263° West 409 471 34,000  Level FlightAware
09:00PM 44.4210 -76.7560 266° West 406 467 34,000  Level FlightAware
09:01PM 44.4170 -76.8520 267° West 407 468 34,000  Level FlightAware
09:02PM 44.4120 -76.9540 266° West 404 465 34,000  Level FlightAware
09:02PM 44.4070 -77.0710 267° West 403 464 34,000 -360 Level FlightAware
09:03PM 44.4020 -77.1770 266° West 412 474 33,500 -1,500 Descending FlightAware
09:04PM 44.3960 -77.3010 266° West 432 497 31,900 -1,980 Descending FlightAware
09:04PM 44.3900 -77.4110 266° West 440 506 30,700 -1,680 Descending FlightAware
09:05PM 44.3840 -77.5260 266° West 437 503 29,700 -1,380 Descending FlightAware
09:06PM 44.3780 -77.6520 266° West 431 496 28,800 -1,320 Descending FlightAware
09:06PM 44.3730 -77.7410 266° West 426 490 28,000 -2,100 Descending FlightAware
09:07PM 44.3640 -77.9070 266° West 412 474 25,500 -2,460 Descending FlightAware
09:08PM 44.3570 -78.0250 265° West 401 461 23,700 -2,460 Descending FlightAware
09:09PM 44.3280 -78.1330 249° West 393 452 21,900 -2,340 Descending FlightAware
09:10PM 44.2930 -78.2170 240° Southwest 386 444 20,400 -2,280 Descending FlightAware
09:10PM 44.2560 -78.3030 239° Southwest 378 435 18,900 -2,280 Descending FlightAware
09:11PM 44.2230 -78.3800 239° Southwest 372 428 17,400 -2,280 Descending FlightAware
09:12PM 44.1820 -78.4780 240° Southwest 362 417 15,700 -2,280 Descending FlightAware
09:12PM 44.1530 -78.5470 240° Southwest 354 407 14,400 -2,220 Descending FlightAware
09:13PM 44.1150 -78.6350 239° Southwest 345 397 12,800 -2,100 Descending FlightAware
09:14PM 44.0800 -78.7170 239° Southwest 335 386 11,300 -1,620 Descending FlightAware
09:14PM 44.0440 -78.7980 238° Southwest 313 360 10,400 -900 Descending FlightAware
09:15PM 44.0090 -78.8540 229° Southwest 281 323 10,100 -600 Descending FlightAware
09:16PM 43.9910 -78.8820 228° Southwest 268 308 9,800 -1,200 Descending FlightAware
09:16PM 43.9750 -78.9050 226° Southwest 268 308 9,300 -1,740 Descending FlightAware
09:16PM 43.9490 -78.9440 227° Southwest 269 310 8,500 -1,500 Descending FlightAware
09:17PM 43.9280 -78.9760 228° Southwest 270 311 7,900 -1,320 Descending FlightAware
09:17PM 43.9130 -78.9980 227° Southwest 268 308 7,400 -1,200 Descending FlightAware
09:18PM 43.8830 -79.0430 227° Southwest 247 284 6,900 -540 Descending FlightAware
09:18PM 43.8740 -79.0700 245° Southwest 229 264 7,000 -420 Climbing FlightAware
09:19PM 43.8780 -79.1270 276° West 222 255 6,500 -960 Descending FlightAware
09:19PM 43.8820 -79.1620 279° West 222 255 6,000 -1,200 Descending FlightAware
09:20PM 43.8870 -79.2050 279° West 219 252 5,400 -1,200 Descending FlightAware
09:20PM 43.8900 -79.2250 282° West 218 251 5,100 -720 Descending FlightAware
09:20PM 43.8950 -79.2660 280° West 204 235 4,900 -120 Descending FlightAware
09:21PM 43.8990 -79.2960 280° West 199 229 5,000 60 Climbing FlightAware
09:21PM 43.8930 -79.3460 261° West 210 242 5,000 -120 Level FlightAware
09:22PM 43.8830 -79.3610 227° Southwest 213 245 4,900 -420 Descending FlightAware
09:22PM 43.8630 -79.3890 225° Southwest 205 236 4,700 -300 Descending FlightAware
09:23PM 43.8430 -79.4180 226° Southwest 203 234 4,600 -600 Descending FlightAware
09:23PM 43.8270 -79.4420 227° Southwest 207 238 4,200 -1,080 Descending FlightAware
09:23PM 43.8170 -79.4560 225° Southwest 205 236 3,900 -1,080 Descending FlightAware
09:24PM 43.7980 -79.4840 227° Southwest 194 223 3,400 -1,020 Descending FlightAware
09:24PM 43.7830 -79.5060 227° Southwest 180 207 3,000 -1,020 Descending FlightAware
09:25PM 43.7660 -79.5300 226° Southwest 169 194 2,500 -900 Descending FlightAware
09:25PM 43.7510 -79.5520 227° Southwest 158 182 2,100 -780 Descending FlightAware
09:26PM 43.7390 -79.5700 227° Southwest 158 182 1,800 -720 Descending FlightAware
09:26PM 43.7270 -79.5880 227° Southwest 138 159 1,500 -840 Descending FlightAware
09:26PM 43.7180 -79.6000 224° Southwest 128 147 1,200 -720 Descending FlightAware
09:27PM 43.7080 -79.6140 225° Southwest 130 150 1,000 -660 Descending FlightAware
09:27PM 43.6950 -79.6330 227° Southwest 131 151 600 -420 Descending FlightAware
09:28PM 43.6850 -79.6480 227° Southwest 131 151 600  Level FlightAware